createdAt,value
2022-12-01T00:01:15.763Z,5.10
2022-12-01T00:04:04.422Z,5.10
2022-12-01T00:06:53.083Z,5.10
2022-12-01T00:09:59.085Z,5.20
2022-12-01T00:12:47.791Z,5.20
2022-12-01T00:15:38.542Z,5.20
2022-12-01T00:18:28.606Z,5.20
2022-12-01T00:21:17.829Z,5.20
2022-12-01T00:24:06.893Z,5.20
2022-12-01T00:26:55.755Z,5.10
2022-12-01T00:29:44.390Z,5.20
2022-12-01T00:32:33.094Z,5.10
2022-12-01T00:35:23.145Z,5.10
2022-12-01T00:38:11.845Z,5.10
2022-12-01T00:41:00.942Z,5.20
2022-12-01T00:43:49.627Z,5.20
2022-12-01T00:46:38.371Z,5.20
2022-12-01T00:49:27.012Z,5.20
2022-12-01T00:52:18.366Z,5.10
2022-12-01T00:55:07.793Z,5.10
2022-12-01T00:57:56.445Z,5.10
2022-12-01T01:00:45.043Z,5.20
2022-12-01T01:03:34.589Z,5.20
2022-12-01T01:06:23.328Z,5.20
2022-12-01T01:09:14.304Z,5.10
2022-12-01T01:12:05.544Z,5.10
2022-12-01T01:14:54.253Z,5.10
2022-12-01T01:17:42.916Z,5.10
2022-12-01T01:20:32.279Z,5.10
2022-12-01T01:23:20.925Z,5.10
2022-12-01T01:26:14.066Z,5.10
2022-12-01T01:29:04.955Z,5.10
2022-12-01T01:31:53.679Z,5.20
2022-12-01T01:34:42.345Z,5.10
2022-12-01T01:37:30.997Z,5.20
2022-12-01T01:40:19.762Z,5.20
2022-12-01T01:43:16.115Z,5.20
2022-12-01T01:46:05.713Z,5.20
2022-12-01T01:48:57.873Z,5.20
2022-12-01T01:51:50.337Z,5.20
2022-12-01T01:54:42.486Z,5.20
2022-12-01T01:57:34.741Z,5.10
2022-12-01T02:00:25.142Z,5.20
2022-12-01T02:03:17.903Z,5.20
2022-12-01T02:06:08.813Z,5.20
2022-12-01T02:08:57.478Z,5.20
2022-12-01T02:12:11.431Z,5.20
2022-12-01T02:15:13.311Z,5.20
2022-12-01T02:18:16.784Z,5.20
2022-12-01T02:21:27.908Z,5.10
2022-12-01T02:24:49.630Z,5.10
2022-12-01T02:28:05.663Z,5.20
2022-12-01T02:30:59.899Z,5.20
2022-12-01T02:33:55.478Z,5.20
2022-12-01T02:36:51.786Z,5.20
2022-12-01T02:39:51.954Z,5.20
2022-12-01T02:42:53.505Z,5.20
2022-12-01T02:45:48.884Z,5.20
2022-12-01T02:48:40.857Z,5.10
2022-12-01T02:51:32.277Z,5.10
2022-12-01T02:54:22.321Z,5.10
2022-12-01T02:57:12.856Z,5.10
2022-12-01T03:00:02.272Z,5.10
2022-12-01T03:03:17.545Z,5.10
2022-12-01T03:06:16.282Z,5.10
2022-12-01T03:09:15.825Z,5.10
2022-12-01T03:12:12.634Z,5.10
2022-12-01T03:15:08.175Z,5.20
2022-12-01T03:18:02.726Z,5.20
2022-12-01T03:20:58.025Z,5.20
2022-12-01T03:23:53.192Z,5.20
2022-12-01T03:26:43.591Z,5.20
2022-12-01T03:29:36.807Z,5.10
2022-12-01T03:32:29.502Z,5.10
2022-12-01T03:35:23.161Z,5.20
2022-12-01T03:38:18.789Z,5.20
2022-12-01T03:41:14.401Z,5.20
2022-12-01T03:44:11.205Z,5.20
2022-12-01T03:47:04.773Z,5.10
2022-12-01T03:49:55.185Z,5.20
2022-12-01T03:52:50.980Z,5.20
2022-12-01T03:55:45.904Z,5.20
2022-12-01T03:58:42.140Z,5.10
2022-12-01T04:01:33.745Z,5.20
2022-12-01T04:04:22.502Z,5.10
2022-12-01T04:07:13.568Z,5.10
2022-12-01T04:10:02.223Z,5.10
2022-12-01T04:12:49.879Z,5.00
2022-12-01T04:15:39.963Z,5.00
2022-12-01T04:18:28.636Z,4.90
2022-12-01T04:21:17.292Z,5.00
2022-12-01T04:24:06.226Z,4.90
2022-12-01T04:26:54.856Z,4.90
2022-12-01T04:29:43.661Z,4.90
2022-12-01T04:32:34.336Z,4.90
2022-12-01T04:35:23.026Z,4.90
2022-12-01T04:38:11.842Z,4.90
2022-12-01T04:41:01.108Z,4.90
2022-12-01T04:43:49.756Z,4.90
2022-12-01T04:46:38.554Z,4.90
2022-12-01T04:49:28.882Z,4.80
2022-12-01T04:52:17.552Z,4.90
2022-12-01T04:55:08.260Z,4.80
2022-12-01T04:57:58.068Z,4.90
2022-12-01T05:00:46.901Z,4.90
2022-12-01T05:03:38.501Z,4.90
2022-12-01T05:06:30.526Z,5.00
2022-12-01T05:09:21.144Z,4.90
2022-12-01T05:12:09.861Z,4.90
2022-12-01T05:14:58.542Z,4.90
2022-12-01T05:17:47.194Z,4.90
2022-12-01T05:20:53.407Z,4.90
2022-12-01T05:23:44.710Z,4.90
2022-12-01T05:26:33.380Z,4.90
2022-12-01T05:29:22.055Z,4.80
2022-12-01T05:32:10.834Z,4.80
2022-12-01T05:34:59.501Z,4.80
2022-12-01T05:37:48.156Z,4.80
2022-12-01T05:40:38.705Z,4.80
2022-12-01T05:43:29.628Z,4.80
2022-12-01T05:46:18.533Z,4.70
2022-12-01T05:49:07.735Z,4.80
2022-12-01T05:51:56.379Z,4.70
2022-12-01T05:54:45.056Z,4.70
2022-12-01T05:57:35.596Z,4.70
2022-12-01T06:00:24.418Z,4.70
2022-12-01T06:03:13.100Z,4.70
2022-12-01T06:06:02.081Z,4.70
2022-12-01T06:08:50.767Z,4.70
2022-12-01T06:11:39.449Z,4.70
2022-12-01T06:14:29.497Z,4.70
2022-12-01T06:17:18.171Z,4.70
2022-12-01T06:20:08.366Z,4.70
2022-12-01T06:22:56.978Z,4.60
2022-12-01T06:25:45.653Z,4.70
2022-12-01T06:28:34.289Z,4.70
2022-12-01T06:31:24.424Z,4.70
2022-12-01T06:34:13.408Z,4.70
2022-12-01T06:37:02.107Z,4.70
2022-12-01T06:39:51.033Z,4.60
2022-12-01T06:42:39.993Z,4.60
2022-12-01T06:45:28.688Z,4.60
2022-12-01T06:48:18.786Z,4.60
2022-12-01T06:51:08.626Z,4.60
2022-12-01T06:54:03.871Z,4.60
2022-12-01T06:56:54.251Z,4.60
2022-12-01T06:59:43.440Z,4.60
2022-12-01T07:02:32.440Z,4.60
2022-12-01T07:05:22.765Z,4.60
2022-12-01T07:08:12.532Z,4.60
2022-12-01T07:11:02.254Z,4.50
2022-12-01T07:13:55.395Z,4.50
2022-12-01T07:16:44.101Z,4.50
2022-12-01T07:19:32.712Z,4.40
2022-12-01T07:22:22.741Z,4.40
2022-12-01T07:25:11.384Z,4.40
2022-12-01T07:28:00.059Z,4.40
2022-12-01T07:30:48.782Z,4.30
2022-12-01T07:33:37.967Z,4.30
2022-12-01T07:36:26.658Z,4.30
2022-12-01T07:39:16.842Z,4.30
2022-12-01T07:42:05.832Z,4.30
2022-12-01T07:44:54.439Z,4.30
2022-12-01T07:47:44.611Z,4.20
2022-12-01T07:50:33.322Z,4.20
2022-12-01T07:53:22.167Z,4.20
2022-12-01T07:56:12.478Z,4.20
2022-12-01T07:59:01.163Z,4.20
2022-12-01T08:01:49.938Z,4.20
2022-12-01T08:04:38.927Z,4.20
2022-12-01T08:07:29.957Z,4.20
2022-12-01T08:10:18.920Z,4.20
2022-12-01T08:13:11.714Z,4.10
2022-12-01T08:16:05.872Z,4.10
2022-12-01T08:18:55.027Z,4.20
2022-12-01T08:21:43.672Z,4.20
2022-12-01T08:24:32.286Z,4.20
2022-12-01T08:27:20.935Z,4.20
2022-12-01T08:30:12.178Z,4.20
2022-12-01T08:33:00.832Z,4.30
2022-12-01T08:35:49.475Z,4.30
2022-12-01T08:38:38.311Z,4.20
2022-12-01T08:41:26.959Z,4.20
2022-12-01T08:44:15.730Z,4.20
2022-12-01T08:47:05.921Z,4.20
2022-12-01T08:49:54.551Z,4.30
2022-12-01T08:52:43.224Z,4.20
2022-12-01T08:55:31.884Z,4.20
2022-12-01T08:58:21.169Z,4.20
2022-12-01T09:01:12.819Z,4.20
2022-12-01T09:04:08.524Z,4.30
2022-12-01T09:06:58.333Z,4.20
2022-12-01T09:09:48.005Z,4.10
2022-12-01T09:12:37.114Z,4.00
2022-12-01T09:15:26.035Z,4.00
2022-12-01T09:18:14.743Z,4.10
2022-12-01T09:21:11.704Z,4.10
2022-12-01T09:24:01.402Z,4.20
2022-12-01T09:26:50.165Z,4.20
2022-12-01T09:29:38.848Z,4.20
2022-12-01T09:32:27.501Z,4.10
2022-12-01T09:35:18.594Z,4.10
2022-12-01T09:38:12.323Z,4.20
2022-12-01T09:41:04.404Z,4.10
2022-12-01T09:44:00.651Z,4.10
2022-12-01T09:46:53.805Z,4.00
2022-12-01T09:49:49.106Z,4.10
2022-12-01T09:52:43.858Z,4.00
2022-12-01T09:55:35.776Z,4.00
2022-12-01T09:58:28.200Z,4.10
2022-12-01T10:01:24.474Z,4.20
2022-12-01T10:04:20.157Z,4.10
2022-12-01T10:07:19.035Z,4.10
2022-12-01T10:10:13.250Z,4.20
2022-12-01T10:13:03.515Z,4.10
2022-12-01T10:15:59.411Z,4.10
2022-12-01T10:18:55.574Z,4.10
2022-12-01T10:22:00.986Z,4.10
2022-12-01T10:24:56.256Z,4.00
2022-12-01T10:27:55.445Z,4.10
2022-12-01T10:30:54.471Z,4.20
2022-12-01T10:33:51.679Z,4.20
2022-12-01T10:36:40.460Z,4.20
2022-12-01T10:39:31.983Z,4.20
2022-12-01T10:42:28.823Z,4.30
2022-12-01T10:45:22.740Z,4.30
2022-12-01T10:48:18.496Z,4.20
2022-12-01T10:51:19.531Z,4.20
2022-12-01T10:54:11.806Z,4.20
2022-12-01T10:57:00.880Z,4.20
2022-12-01T10:59:54.025Z,4.20
2022-12-01T11:02:45.310Z,4.20
2022-12-01T11:05:40.104Z,4.10
2022-12-01T11:08:36.486Z,4.10
2022-12-01T11:11:38.193Z,4.10
2022-12-01T11:14:34.393Z,4.10
2022-12-01T11:17:33.772Z,4.10
2022-12-01T11:20:32.720Z,4.10
2022-12-01T11:23:28.535Z,4.30
2022-12-01T11:26:20.866Z,4.20
2022-12-01T11:29:25.945Z,4.40
2022-12-01T11:32:20.774Z,4.40
2022-12-01T11:35:19.931Z,4.30
2022-12-01T11:41:31.601Z,4.40
2022-12-01T11:44:43.591Z,4.30
2022-12-01T11:47:30.743Z,4.40
2022-12-01T11:50:26.833Z,4.30
2022-12-01T11:53:29.228Z,4.10
2022-12-01T11:56:23.557Z,4.00
2022-12-01T11:59:16.812Z,4.00
2022-12-01T12:02:21.180Z,4.00
2022-12-01T12:05:46.700Z,4.00
2022-12-01T12:08:49.033Z,3.90
2022-12-01T12:11:45.554Z,3.90
2022-12-01T12:14:48.824Z,3.90
2022-12-01T12:17:56.126Z,3.90
2022-12-01T12:20:57.520Z,3.90
2022-12-01T12:24:08.333Z,3.80
2022-12-01T12:27:10.028Z,3.90
2022-12-01T12:30:21.508Z,3.90
2022-12-01T12:33:59.471Z,3.80
2022-12-01T12:36:56.423Z,3.80
2022-12-01T12:40:00.374Z,3.70
2022-12-01T12:43:07.776Z,3.80
2022-12-01T12:46:07.461Z,3.80
2022-12-01T12:49:20.196Z,3.80
2022-12-01T12:52:15.080Z,3.70
2022-12-01T12:55:12.250Z,3.60
2022-12-01T12:58:10.817Z,3.60
2022-12-01T13:01:06.610Z,3.70
2022-12-01T13:04:00.946Z,3.70
2022-12-01T13:06:54.197Z,3.60
2022-12-01T13:09:45.755Z,3.60
2022-12-01T13:12:39.355Z,3.60
2022-12-01T13:15:30.208Z,3.50
2022-12-01T13:18:29.211Z,3.50
2022-12-01T13:21:21.092Z,3.50
2022-12-01T13:24:18.518Z,3.50
2022-12-01T13:27:17.647Z,3.50
2022-12-01T13:30:18.337Z,3.50
2022-12-01T13:33:08.336Z,3.40
2022-12-01T13:36:29.867Z,3.30
2022-12-01T13:39:17.586Z,3.30
2022-12-01T13:42:09.001Z,3.30
2022-12-01T13:45:00.862Z,3.30
2022-12-01T13:47:52.849Z,3.30
2022-12-01T13:51:05.063Z,3.30
2022-12-01T13:54:05.295Z,3.30
2022-12-01T13:57:03.801Z,3.30
2022-12-01T14:00:22.679Z,3.30
2022-12-01T14:03:47.840Z,3.20
2022-12-01T14:06:46.665Z,3.20
2022-12-01T14:09:38.383Z,3.20
2022-12-01T14:12:31.499Z,3.20
2022-12-01T14:15:36.834Z,3.20
2022-12-01T14:18:34.295Z,3.20
2022-12-01T14:21:43.429Z,3.20
2022-12-01T14:24:36.047Z,3.30
2022-12-01T14:27:37.184Z,3.20
2022-12-01T14:31:03.749Z,3.20
2022-12-01T14:33:55.225Z,3.20
2022-12-01T14:36:48.633Z,3.10
2022-12-01T14:39:39.655Z,3.10
2022-12-01T14:42:47.465Z,3.10
2022-12-01T14:45:45.595Z,3.10
2022-12-01T14:48:39.320Z,3.00
2022-12-01T14:51:31.975Z,3.10
2022-12-01T14:54:27.492Z,2.90
2022-12-01T14:57:22.692Z,2.90
2022-12-01T15:00:16.074Z,2.80
2022-12-01T15:03:09.398Z,2.80
2022-12-01T15:05:58.138Z,2.80
2022-12-01T15:09:04.063Z,2.80
2022-12-01T15:12:00.214Z,2.70
2022-12-01T15:14:51.432Z,2.70
2022-12-01T15:17:40.682Z,2.60
2022-12-01T15:20:31.527Z,2.70
2022-12-01T15:23:20.397Z,2.60
2022-12-01T15:26:20.073Z,2.60
2022-12-01T15:29:17.792Z,2.60
2022-12-01T15:32:09.310Z,2.60
2022-12-01T15:35:01.961Z,2.60
2022-12-01T15:37:53.699Z,2.50
2022-12-01T15:41:27.984Z,2.60
2022-12-01T15:43:58.237Z,2.60
2022-12-01T15:46:48.295Z,2.60
2022-12-01T15:49:48.876Z,2.50
2022-12-01T15:52:45.079Z,2.50
2022-12-01T15:55:36.520Z,2.60
2022-12-01T15:58:27.261Z,2.60
2022-12-01T16:01:18.649Z,2.60
2022-12-01T16:04:18.992Z,2.60
2022-12-01T16:07:10.636Z,2.50
2022-12-01T16:10:01.435Z,2.40
2022-12-01T16:12:50.167Z,2.40
2022-12-01T16:15:45.108Z,2.40
2022-12-01T16:18:35.304Z,2.40
2022-12-01T16:21:26.992Z,2.40
2022-12-01T16:24:18.109Z,2.30
2022-12-01T16:27:09.648Z,2.40
2022-12-01T16:30:00.986Z,2.40
2022-12-01T16:32:50.289Z,2.40
2022-12-01T16:35:38.974Z,2.30
2022-12-01T16:38:30.402Z,2.30
2022-12-01T16:41:27.958Z,2.30
2022-12-01T16:44:32.398Z,2.30
2022-12-01T16:47:23.146Z,2.30
2022-12-01T16:50:15.605Z,2.30
2022-12-01T16:53:04.859Z,2.30
2022-12-01T16:55:56.790Z,2.30
2022-12-01T16:58:45.612Z,2.20
2022-12-01T17:01:34.288Z,2.30
2022-12-01T17:04:23.006Z,2.30
2022-12-01T17:07:13.097Z,2.30
2022-12-01T17:10:01.732Z,2.30
2022-12-01T17:12:51.788Z,2.30
2022-12-01T17:15:42.648Z,2.30
2022-12-01T17:18:31.720Z,2.20
2022-12-01T17:21:20.491Z,2.30
2022-12-01T17:24:09.547Z,2.20
2022-12-01T17:26:58.194Z,2.20
2022-12-01T17:29:48.397Z,2.20
2022-12-01T17:32:37.021Z,2.10
2022-12-01T17:35:25.698Z,2.10
2022-12-01T17:38:15.035Z,2.10
2022-12-01T17:41:05.853Z,2.10
2022-12-01T17:43:54.518Z,2.10
2022-12-01T17:46:44.647Z,2.00
2022-12-01T17:49:33.501Z,2.00
2022-12-01T17:52:26.670Z,2.00
2022-12-01T17:55:17.360Z,2.00
2022-12-01T17:58:06.000Z,2.10
2022-12-01T18:00:55.239Z,2.10
2022-12-01T18:03:45.860Z,2.10
2022-12-01T18:06:34.808Z,2.10
2022-12-01T18:09:23.506Z,2.00
2022-12-01T18:12:12.154Z,2.00
2022-12-01T18:15:02.905Z,2.00
2022-12-01T18:17:51.626Z,2.00
2022-12-01T18:20:43.474Z,2.00
2022-12-01T18:23:32.181Z,2.00
2022-12-01T18:26:22.365Z,1.90
2022-12-01T18:29:16.031Z,1.90
2022-12-01T18:32:04.859Z,1.90
2022-12-01T18:34:54.459Z,1.90
2022-12-01T18:37:44.481Z,1.90
2022-12-01T18:40:33.137Z,1.90
2022-12-01T18:43:21.762Z,1.90
2022-12-01T18:46:11.765Z,1.90
2022-12-01T18:49:02.202Z,1.90
2022-12-01T18:51:50.906Z,2.00
2022-12-01T18:54:40.999Z,2.10
2022-12-01T18:57:29.685Z,2.10
2022-12-01T19:00:19.279Z,2.10
2022-12-01T19:03:07.928Z,2.10
2022-12-01T19:05:57.334Z,2.10
2022-12-01T19:08:46.120Z,2.20
2022-12-01T19:11:36.660Z,2.10
2022-12-01T19:14:26.641Z,2.10
2022-12-01T19:17:15.377Z,2.20
2022-12-01T19:20:04.764Z,2.10
2022-12-01T19:22:53.428Z,2.20
2022-12-01T19:25:42.091Z,2.20
2022-12-01T19:28:32.411Z,2.10
2022-12-01T19:31:23.792Z,2.10
2022-12-01T19:34:12.535Z,2.10
2022-12-01T19:37:01.205Z,2.10
2022-12-01T19:39:49.864Z,2.00
2022-12-01T19:42:38.945Z,2.00
2022-12-01T19:45:30.839Z,2.00
2022-12-01T19:48:19.541Z,2.00
2022-12-01T19:51:09.048Z,2.00
2022-12-01T19:53:57.721Z,2.00
2022-12-01T19:56:46.896Z,2.10
2022-12-01T19:59:35.542Z,2.10
2022-12-01T20:02:29.098Z,2.10
2022-12-01T20:05:18.479Z,2.10
2022-12-01T20:08:07.578Z,2.10
2022-12-01T20:10:57.408Z,2.00
2022-12-01T20:13:47.536Z,2.00
2022-12-01T20:16:36.416Z,2.00
2022-12-01T20:19:26.567Z,2.00
2022-12-01T20:22:15.281Z,2.00
2022-12-01T20:25:05.516Z,2.00
2022-12-01T20:27:54.174Z,2.00
2022-12-01T20:30:42.803Z,2.00
2022-12-01T20:33:31.619Z,2.10
2022-12-01T20:36:21.905Z,2.10
2022-12-01T20:39:12.659Z,2.10
2022-12-01T20:42:01.435Z,2.10
2022-12-01T20:44:50.329Z,2.10
2022-12-01T20:47:39.209Z,2.10
2022-12-01T20:50:27.838Z,2.10
2022-12-01T20:53:18.389Z,2.10
2022-12-01T20:56:09.594Z,2.20
2022-12-01T20:58:58.297Z,2.20
2022-12-01T21:01:46.985Z,2.20
2022-12-01T21:04:35.667Z,2.10
2022-12-01T21:07:24.355Z,2.10
2022-12-01T21:10:19.675Z,2.10
2022-12-01T21:13:38.971Z,2.10
2022-12-01T21:16:33.604Z,2.20
2022-12-01T21:19:27.245Z,2.10
2022-12-01T21:22:16.090Z,2.10
2022-12-01T21:25:15.518Z,2.10
2022-12-01T21:28:14.352Z,2.10
2022-12-01T21:31:11.576Z,2.10
2022-12-01T21:34:00.281Z,2.10
2022-12-01T21:36:50.347Z,2.10
2022-12-01T21:39:40.465Z,2.10
2022-12-01T21:42:32.638Z,2.10
2022-12-01T21:45:27.015Z,2.00
2022-12-01T21:48:18.236Z,2.10
2022-12-01T21:51:15.548Z,2.10
2022-12-01T21:54:04.202Z,2.00
2022-12-01T21:56:57.581Z,2.10
2022-12-01T21:59:47.651Z,2.00
2022-12-01T22:02:47.139Z,2.10
2022-12-01T22:05:39.535Z,2.10
2022-12-01T22:08:29.678Z,2.10
2022-12-01T22:11:20.853Z,2.10
2022-12-01T22:14:16.640Z,2.10
2022-12-01T22:17:19.746Z,2.10
2022-12-01T22:20:23.643Z,2.10
2022-12-01T22:23:14.501Z,2.10
2022-12-01T22:26:03.209Z,2.10
2022-12-01T22:28:56.202Z,2.20
2022-12-01T22:31:44.864Z,2.10
2022-12-01T22:34:35.503Z,2.10
2022-12-01T22:37:25.793Z,2.10
2022-12-01T22:40:35.298Z,2.10
2022-12-01T22:43:38.103Z,2.20
2022-12-01T22:46:33.058Z,2.10
2022-12-01T22:49:24.620Z,2.10
2022-12-01T22:52:23.696Z,2.20
2022-12-01T22:55:17.662Z,2.20
2022-12-01T22:58:20.460Z,2.20
2022-12-01T23:01:21.833Z,2.20
2022-12-01T23:04:21.584Z,2.10
2022-12-01T23:07:16.505Z,2.10
2022-12-01T23:10:15.451Z,2.10
2022-12-01T23:13:15.160Z,2.10
2022-12-01T23:16:03.893Z,2.10
2022-12-01T23:19:01.166Z,2.10
2022-12-01T23:21:49.801Z,2.10
2022-12-01T23:24:38.675Z,2.10
2022-12-01T23:27:28.753Z,2.10
2022-12-01T23:30:19.185Z,2.20
2022-12-01T23:33:14.436Z,2.20
2022-12-01T23:36:05.678Z,2.20
2022-12-01T23:38:58.876Z,2.20
2022-12-01T23:41:49.430Z,2.20
2022-12-01T23:44:45.360Z,2.20
2022-12-01T23:47:34.131Z,2.20
2022-12-01T23:50:25.790Z,2.20
2022-12-01T23:53:29.404Z,2.10
2022-12-01T23:56:21.904Z,2.10
2022-12-01T23:59:13.433Z,2.10
